Time;durP1;ratioP1;P1;durP2;ratioP2;P2;SDS_P1;SDS_P2;PMS_P1;PMS_P2;Temp;Humidity;BMP_temperature;BMP_pressure;BME280_temperature;BME280_humidity;BME280_pressure;Samples;Min_cycle;Max_cycle;Signal;HPM_P1;HPM_P2
2021/10/28 00:12:13;;;;;;;8.25;4.90;;;;;;;17.13;46.63;101714.50;5066396;28;20111;-67
2021/10/28 00:14:42;;;;;;;8.82;4.85;;;;;;;17.11;46.24;101720.97;5061979;28;20044;-67
2021/10/28 00:17:13;;;;;;;7.35;4.75;;;;;;;17.11;46.26;101717.34;5062752;28;20049;-67
2021/10/28 00:19:41;;;;;;;9.30;4.80;;;;;;;17.09;46.55;101712.00;5063074;28;20656;-67
2021/10/28 00:22:10;;;;;;;7.35;4.55;;;;;;;17.09;46.53;101713.84;5068869;28;20052;-67
2021/10/28 00:24:37;;;;;;;7.93;4.97;;;;;;;17.06;46.65;101720.44;5057943;28;20045;-67
2021/10/28 00:27:04;;;;;;;8.20;5.03;;;;;;;17.07;46.48;101721.34;5062221;28;20722;-67
2021/10/28 00:29:31;;;;;;;9.02;4.78;;;;;;;17.04;46.83;101714.25;5060534;28;20699;-67
2021/10/28 00:31:59;;;;;;;8.40;5.15;;;;;;;17.02;46.43;101716.22;5065003;28;20079;-67
2021/10/28 00:34:26;;;;;;;7.95;4.97;;;;;;;17.02;46.42;101715.34;5060114;28;20110;-67
2021/10/28 00:36:53;;;;;;;7.63;4.82;;;;;;;17.00;46.75;101717.34;5068553;28;20080;-67
2021/10/28 00:39:19;;;;;;;8.45;5.35;;;;;;;16.98;46.48;101711.97;5064876;28;20045;-67
2021/10/28 00:41:46;;;;;;;9.38;5.28;;;;;;;16.97;46.48;101712.09;5070100;28;20048;-67
2021/10/28 00:44:14;;;;;;;8.48;4.95;;;;;;;16.96;46.45;101713.97;5060380;28;20106;-67
2021/10/28 00:46:41;;;;;;;8.75;5.25;;;;;;;16.95;46.89;101712.22;5062854;28;20098;-67
2021/10/28 00:49:10;;;;;;;8.32;5.05;;;;;;;16.95;46.65;101704.00;5044483;28;20106;-67
2021/10/28 00:51:37;;;;;;;8.13;5.18;;;;;;;16.94;47.10;101710.47;5069684;28;20081;-67
2021/10/28 00:54:06;;;;;;;9.70;5.30;;;;;;;16.93;47.13;101706.00;5063053;28;20053;-67
2021/10/28 00:56:33;;;;;;;8.73;5.55;;;;;;;16.91;46.96;101713.47;5064184;28;20048;-67
2021/10/28 00:59:01;;;;;;;9.60;5.57;;;;;;;16.90;47.01;101700.72;5063827;28;20495;-67
2021/10/28 01:01:28;;;;;;;7.28;5.35;;;;;;;16.87;46.48;101717.47;5073563;28;20052;-67
2021/10/28 01:03:56;;;;;;;8.18;5.47;;;;;;;16.86;46.74;101702.00;5077625;28;20052;-67
2021/10/28 01:06:23;;;;;;;9.60;5.90;;;;;;;16.84;47.01;101706.72;5067401;28;20048;-67
2021/10/28 01:08:50;;;;;;;8.77;5.43;;;;;;;16.83;46.86;101690.38;5065748;28;20048;-67
2021/10/28 01:11:17;;;;;;;8.15;5.45;;;;;;;16.82;47.04;101694.97;5069630;28;20083;-67
2021/10/28 01:13:44;;;;;;;8.40;4.88;;;;;;;16.80;46.77;101688.75;5045369;28;20069;-67
2021/10/28 01:16:11;;;;;;;8.23;5.30;;;;;;;16.79;46.92;101694.38;5048855;28;20080;-67
2021/10/28 01:18:39;;;;;;;8.85;5.45;;;;;;;16.77;46.82;101694.50;5056108;28;20051;-67
2021/10/28 01:21:08;;;;;;;9.32;6.00;;;;;;;16.78;46.81;101692.63;5072847;28;20114;-67
2021/10/28 01:23:38;;;;;;;8.48;5.13;;;;;;;16.74;46.90;101687.38;5059628;28;20053;-67
2021/10/28 01:26:07;;;;;;;9.10;5.53;;;;;;;16.75;46.95;101685.50;5065964;28;20189;-67
2021/10/28 01:28:37;;;;;;;10.60;5.90;;;;;;;16.74;47.41;101695.59;5063052;28;20048;-67
2021/10/28 01:31:07;;;;;;;8.60;5.40;;;;;;;16.73;47.08;101687.50;5057118;28;20732;-67
2021/10/28 01:33:34;;;;;;;8.88;5.30;;;;;;;16.70;47.37;101685.88;5063145;28;20099;-67
2021/10/28 01:36:02;;;;;;;10.05;6.07;;;;;;;16.68;46.99;101687.88;5061382;28;20067;-67
2021/10/28 01:38:28;;;;;;;8.70;5.32;;;;;;;16.68;47.34;101689.75;5046232;28;20045;-67
2021/10/28 01:41:01;;;;;;;9.63;5.43;;;;;;;16.71;47.35;101684.03;5070099;28;20049;-67
2021/10/28 01:43:29;;;;;;;8.98;5.18;;;;;;;16.65;46.90;101681.75;5060692;28;20582;-67
2021/10/28 01:45:57;;;;;;;8.77;5.78;;;;;;;16.66;47.15;101675.25;5068533;28;20489;-67
2021/10/28 01:48:25;;;;;;;10.30;6.15;;;;;;;16.66;47.28;101669.78;5064881;28;20088;-67
2021/10/28 01:50:52;;;;;;;11.20;6.78;;;;;;;16.63;47.49;101676.41;5072177;28;20083;-67
2021/10/28 01:53:19;;;;;;;9.77;6.18;;;;;;;16.62;47.13;101666.44;5060658;28;20463;-67
2021/10/28 01:55:46;;;;;;;10.23;6.30;;;;;;;16.60;47.38;101662.88;5068172;28;20080;-67
2021/10/28 01:58:15;;;;;;;8.75;5.90;;;;;;;16.60;47.27;101670.25;5060332;28;20072;-67
2021/10/28 02:00:43;;;;;;;9.55;6.15;;;;;;;16.59;46.92;101666.63;5025896;28;20053;-67
2021/10/28 02:03:10;;;;;;;9.43;6.10;;;;;;;16.56;47.35;101652.28;5066633;28;20073;-67
2021/10/28 02:05:37;;;;;;;9.38;6.20;;;;;;;16.55;47.66;101658.78;5058223;28;20073;-67
2021/10/28 02:08:04;;;;;;;9.48;5.63;;;;;;;16.55;47.73;101653.28;5065549;28;20083;-67
2021/10/28 02:10:30;;;;;;;9.05;5.75;;;;;;;16.53;47.28;101647.94;5047867;28;20122;-66
2021/10/28 02:12:57;;;;;;;11.38;6.28;;;;;;;16.52;47.25;101654.41;5069204;28;20098;-66
2021/10/28 02:15:25;;;;;;;10.15;6.57;;;;;;;16.52;47.17;101648.03;5063170;28;20469;-66
2021/10/28 02:17:51;;;;;;;10.48;6.53;;;;;;;16.50;47.35;101642.69;5066205;28;20131;-66
2021/10/28 02:20:19;;;;;;;10.02;5.80;;;;;;;16.51;47.41;101644.44;5060756;28;20075;-66
2021/10/28 02:22:47;;;;;;;10.15;6.50;;;;;;;16.50;47.51;101636.31;5067157;28;20057;-66
2021/10/28 02:25:14;;;;;;;9.27;6.15;;;;;;;16.49;47.50;101635.44;5059912;28;20049;-67
2021/10/28 02:27:42;;;;;;;10.38;6.40;;;;;;;16.48;47.63;101639.19;5065530;28;20136;-67
2021/10/28 02:30:11;;;;;;;10.65;6.68;;;;;;;16.49;47.52;101631.81;5052078;28;20040;-67
2021/10/28 02:32:38;;;;;;;10.75;6.15;;;;;;;16.48;47.43;101632.81;5065187;28;20098;-67
2021/10/28 02:35:05;;;;;;;10.23;6.40;;;;;;;16.47;47.65;101622.88;5068844;28;20045;-67
2021/10/28 02:37:32;;;;;;;9.43;5.97;;;;;;;16.46;47.48;101624.75;5066972;28;20588;-67
2021/10/28 02:39:59;;;;;;;9.30;6.07;;;;;;;16.46;47.46;101626.59;5040508;28;20450;-67
2021/10/28 02:42:26;;;;;;;11.68;6.78;;;;;;;16.45;47.54;101619.38;5065230;28;20637;-67
2021/10/28 02:44:53;;;;;;;10.43;6.15;;;;;;;16.44;47.64;101620.38;5038632;28;20106;-67
2021/10/28 02:47:20;;;;;;;11.25;6.85;;;;;;;16.43;47.29;101614.00;5057094;28;20097;-67
2021/10/28 02:49:47;;;;;;;10.13;6.22;;;;;;;16.42;47.53;101614.13;5044122;28;20045;-67
2021/10/28 02:52:18;;;;;;;9.27;5.78;;;;;;;16.42;47.70;101619.59;5061390;28;20114;-67
2021/10/28 02:54:45;;;;;;;9.30;5.78;;;;;;;16.42;47.61;101614.13;5051420;28;20053;-67
2021/10/28 02:57:12;;;;;;;11.00;6.45;;;;;;;16.40;47.59;101614.25;5044396;28;20470;-67
2021/10/28 02:59:39;;;;;;;10.82;6.40;;;;;;;16.41;47.51;101615.13;5063573;28;20040;-67
2021/10/28 03:02:05;;;;;;;9.63;5.95;;;;;;;16.40;47.55;101614.25;5054285;28;20483;-67
2021/10/28 03:04:32;;;;;;;10.43;6.32;;;;;;;16.40;47.48;101613.38;5058981;28;20496;-67
2021/10/28 03:06:59;;;;;;;10.02;6.07;;;;;;;16.38;47.40;101610.78;5057961;28;20056;-67
2021/10/28 03:09:27;;;;;;;10.55;6.65;;;;;;;16.40;47.17;101613.38;5057042;28;20107;-67
2021/10/28 03:11:57;;;;;;;10.25;6.15;;;;;;;16.38;47.11;101612.63;5063689;28;20084;-67
2021/10/28 03:14:35;;;;;;;11.20;7.18;;;;;;;16.36;47.67;101605.41;5066109;28;20042;-67
2021/10/28 03:19:45;;;;;;;11.63;6.60;;;;;;;16.33;47.70;101599.28;5067167;28;20158;-67
2021/10/28 03:27:43;;;;;;;10.70;6.68;;;;;;;16.28;47.54;101582.34;5067417;28;20049;-67
2021/10/28 03:30:10;;;;;;;9.30;6.05;;;;;;;16.29;47.37;101587.72;5063943;28;20076;-68
2021/10/28 03:32:37;;;;;;;12.68;7.25;;;;;;;16.27;47.51;101581.47;5056029;28;20531;-68
2021/10/28 03:35:07;;;;;;;10.82;6.03;;;;;;;16.27;47.42;101575.13;5049003;28;20666;-67
2021/10/28 03:37:48;;;;;;;11.32;6.45;;;;;;;16.25;47.84;101577.97;5066217;28;20139;-67
2021/10/28 04:31:01;;;;;;;13.32;7.15;;;;;;;16.02;47.78;101546.03;5065018;28;20040;-67
2021/10/28 04:33:28;;;;;;;12.05;7.53;;;;;;;16.02;48.25;101546.03;5061723;28;20044;-68
2021/10/28 04:35:55;;;;;;;12.88;7.68;;;;;;;16.02;48.04;101553.38;5062131;28;20548;-67
2021/10/28 04:38:22;;;;;;;12.18;7.60;;;;;;;16.01;47.85;101549.78;5051684;28;20140;-68
2021/10/28 04:40:49;;;;;;;12.95;7.80;;;;;;;16.00;48.10;101545.28;5046462;28;20107;-67
2021/10/28 04:43:15;;;;;;;13.23;6.97;;;;;;;15.98;47.76;101545.41;5062121;28;20491;-67
2021/10/28 04:45:42;;;;;;;13.00;7.53;;;;;;;15.97;48.23;101540.06;5066161;28;20444;-67
2021/10/28 04:48:11;;;;;;;12.85;7.32;;;;;;;15.98;47.82;101539.91;5053994;28;20098;-68
2021/10/28 04:50:37;;;;;;;12.63;7.63;;;;;;;15.96;48.12;101541.06;5059714;28;20091;-68
2021/10/28 04:53:04;;;;;;;11.65;7.35;;;;;;;15.95;48.17;101536.56;5049369;28;20144;-68
2021/10/28 04:55:31;;;;;;;11.55;7.68;;;;;;;15.95;48.24;101540.19;5014003;28;20125;-68
2021/10/28 04:57:58;;;;;;;13.68;7.85;;;;;;;15.95;48.10;101525.59;5039097;28;20045;-68
2021/10/28 05:00:24;;;;;;;12.48;7.35;;;;;;;15.94;47.98;101532.94;5060555;28;20044;-68
2021/10/28 05:02:51;;;;;;;11.60;7.15;;;;;;;15.95;48.14;101536.56;5045319;28;20111;-68
2021/10/28 05:05:18;;;;;;;11.40;7.25;;;;;;;15.95;48.34;101536.56;5067854;28;20867;-68
2021/10/28 05:07:45;;;;;;;12.18;7.15;;;;;;;15.96;47.89;101539.19;5057936;28;20055;-68
2021/10/28 05:10:11;;;;;;;13.68;8.00;;;;;;;15.96;48.40;101532.84;5058669;28;20079;-68
2021/10/28 05:12:38;;;;;;;14.48;8.52;;;;;;;15.95;48.23;101540.19;5060936;28;20106;-68
2021/10/28 05:15:05;;;;;;;12.85;7.93;;;;;;;15.95;48.19;101531.09;5066248;28;20048;-68
2021/10/28 05:17:32;;;;;;;13.43;7.82;;;;;;;15.95;48.43;101542.03;5046789;28;20056;-68
2021/10/28 05:19:58;;;;;;;12.63;7.80;;;;;;;15.95;48.33;101534.69;5056758;28;20487;-68
2021/10/28 05:22:25;;;;;;;13.43;7.90;;;;;;;15.95;48.59;101536.56;5064695;28;20048;-68
2021/10/28 05:24:52;;;;;;;14.73;8.35;;;;;;;15.94;48.51;101527.47;5063885;28;20407;-68
2021/10/28 05:27:18;;;;;;;13.05;8.23;;;;;;;15.94;48.38;101535.69;5064921;28;20375;-68
2021/10/28 05:29:59;;;;;;;14.48;7.88;;;;;;;15.92;48.16;101528.56;5058578;28;20045;-68
2021/10/28 05:32:26;;;;;;;14.13;8.27;;;;;;;15.89;48.06;101517.88;5060954;28;20060;-68
2021/10/28 05:34:58;;;;;;;14.25;8.27;;;;;;;15.88;48.41;101519.75;5046949;28;20088;-68
2021/10/28 05:37:26;;;;;;;13.18;7.60;;;;;;;15.85;48.54;101517.25;5046719;28;20495;-69
2021/10/28 05:39:55;;;;;;;13.93;7.93;;;;;;;15.84;48.33;101520.09;5056267;28;20064;-68
2021/10/28 05:42:24;;;;;;;14.40;8.15;;;;;;;15.82;48.13;101520.22;5058907;28;20049;-68
2021/10/28 05:44:50;;;;;;;14.85;7.93;;;;;;;15.82;48.24;101511.13;5056065;28;20045;-68
2021/10/28 05:47:17;;;;;;;13.07;7.35;;;;;;;15.80;48.56;101505.78;5060965;28;20083;-68
2021/10/28 05:49:45;;;;;;;14.85;7.93;;;;;;;15.79;48.30;101503.16;5059855;28;20060;-68
2021/10/28 05:52:11;;;;;;;14.70;8.75;;;;;;;15.78;48.42;101502.28;5052003;28;20494;-68
2021/10/28 05:54:38;;;;;;;13.80;7.20;;;;;;;15.78;48.44;101495.94;5064171;28;20055;-69
2021/10/28 05:57:06;;;;;;;14.93;8.23;;;;;;;15.77;48.77;101492.31;5066122;28;20098;-69
2021/10/28 05:59:32;;;;;;;12.02;7.43;;;;;;;15.78;48.97;101494.06;5056092;28;20041;-69
2021/10/28 06:01:59;;;;;;;13.93;8.43;;;;;;;15.81;49.22;101499.28;5063043;28;20132;-69
2021/10/28 06:04:27;;;;;;;12.70;7.15;;;;;;;15.84;49.20;101485.38;5058820;28;20068;-68
2021/10/28 06:06:57;;;;;;;13.70;8.07;;;;;;;15.85;49.31;101486.25;5055181;28;20051;-68
2021/10/28 06:09:24;;;;;;;13.60;7.68;;;;;;;15.87;48.90;101484.25;5060030;28;20080;-68
2021/10/28 06:11:51;;;;;;;13.80;8.10;;;;;;;15.90;48.83;101479.41;5067141;28;20103;-68
2021/10/28 06:14:23;;;;;;;13.93;8.63;;;;;;;15.91;48.80;101475.66;5070772;28;20051;-68
2021/10/28 06:16:58;;;;;;;15.00;8.20;;;;;;;15.94;48.74;101474.56;5055453;28;20061;-69
2021/10/28 06:19:25;;;;;;;13.52;8.07;;;;;;;15.94;48.49;101469.09;5060140;28;20052;-68
2021/10/28 06:21:51;;;;;;;14.32;8.18;;;;;;;15.94;48.46;101474.56;5063567;28;20049;-68
2021/10/28 06:24:18;;;;;;;12.65;7.45;;;;;;;15.95;48.33;101473.56;5060784;28;20539;-68
2021/10/28 06:26:45;;;;;;;12.18;7.40;;;;;;;15.95;48.30;101473.56;5061210;28;20076;-68
2021/10/28 06:29:11;;;;;;;13.18;8.23;;;;;;;15.93;48.18;101470.94;5056837;28;20398;-68
2021/10/28 06:31:38;;;;;;;13.25;8.20;;;;;;;15.94;48.57;101469.97;5061581;28;20057;-68
2021/10/28 06:34:17;;;;;;;12.05;7.75;;;;;;;15.92;48.47;101471.06;5034419;28;20044;-68
2021/10/28 06:36:44;;;;;;;13.57;7.38;;;;;;;15.92;48.30;101465.59;5057659;28;20049;-68
2021/10/28 06:39:11;;;;;;;11.95;7.10;;;;;;;15.92;48.38;101473.81;5065220;28;20041;-68
2021/10/28 06:41:38;;;;;;;14.77;7.85;;;;;;;15.91;48.79;101467.47;5060006;28;20106;-68
2021/10/28 06:44:05;;;;;;;14.88;7.97;;;;;;;15.92;48.31;101480.16;5072676;28;20076;-68
2021/10/28 06:46:32;;;;;;;12.07;7.32;;;;;;;15.91;48.58;101480.28;5063175;28;20101;-68
2021/10/28 06:48:58;;;;;;;13.98;8.07;;;;;;;15.91;48.47;101483.88;5067418;28;20075;-68
2021/10/28 06:51:25;;;;;;;13.18;7.47;;;;;;;15.91;48.34;101477.53;5065588;28;20049;-68
2021/10/28 07:02:17;;;;;;;11.77;6.95;;;;;;;15.88;48.48;101475.94;5067030;28;20400;-68
2021/10/28 07:04:46;;;;;;;11.70;7.53;;;;;;;15.89;48.49;101480.41;5042484;28;20132;-68
2021/10/28 07:07:14;;;;;;;13.75;8.00;;;;;;;15.91;49.09;101474.78;5056520;28;20048;-68
2021/10/28 07:09:51;;;;;;;13.02;7.70;;;;;;;15.91;48.78;101472.06;5040254;28;20044;-68
2021/10/28 07:12:23;;;;;;;11.50;6.97;;;;;;;15.91;48.87;101472.06;5060736;28;20052;-67
2021/10/28 07:14:57;;;;;;;13.23;7.37;;;;;;;15.89;49.06;101461.25;5055408;28;20080;-68
2021/10/28 08:17:35;;;;;;;10.63;6.93;;;;;;;15.90;49.34;101449.28;5039266;28;20545;-68
2021/10/28 08:20:11;;;;;;;11.00;6.80;;;;;;;15.91;48.78;101441.94;5048091;28;20052;-68
2021/10/28 08:22:42;;;;;;;11.52;7.05;;;;;;;15.92;48.96;101435.47;5055884;28;20052;-68
2021/10/28 08:30:39;;;;;;;10.65;6.70;;;;;;;15.93;49.07;101440.81;5022825;28;20094;-68
2021/10/28 08:33:06;;;;;;;12.77;7.10;;;;;;;15.93;49.23;101439.94;5057649;28;20734;-68
2021/10/28 08:35:41;;;;;;;10.00;6.60;;;;;;;15.94;49.22;101433.50;5043433;28;20507;-68
2021/10/28 08:38:08;;;;;;;11.10;6.80;;;;;;;15.96;48.88;101432.38;5053467;28;20189;-68
2021/10/28 08:40:35;;;;;;;10.65;6.57;;;;;;;15.97;49.12;101430.50;5064030;28;20037;-68
2021/10/28 08:43:03;;;;;;;11.45;7.32;;;;;;;15.97;48.92;101427.78;5057250;28;20048;-68
2021/10/28 08:45:35;;;;;;;10.48;6.85;;;;;;;15.99;49.09;101440.31;5082550;28;20097;-68
2021/10/28 08:48:04;;;;;;;10.07;6.50;;;;;;;15.99;49.07;101439.44;5055606;28;20045;-68
2021/10/28 08:50:43;;;;;;;10.07;6.63;;;;;;;16.02;49.37;101435.59;5069131;28;20466;-68
2021/10/28 08:55:48;;;;;;;9.98;6.63;;;;;;;16.05;49.19;101436.25;5067390;28;20133;-68
2021/10/28 09:24:11;;;;;;;8.82;5.72;;;;;;;16.31;49.32;101404.84;5068999;28;20490;-68
2021/10/28 09:26:50;;;;;;;8.98;5.85;;;;;;;16.33;49.23;101401.97;5060772;28;20044;-68
2021/10/28 09:51:47;;;;;;;8.23;5.32;;;;;;;16.80;49.48;101388.97;5051623;28;20045;-68
2021/10/28 09:54:49;;;;;;;8.13;5.45;;;;;;;16.84;49.65;101391.31;5066554;28;20060;-68
2021/10/28 10:00:10;;;;;;;8.35;5.55;;;;;;;16.99;49.73;101389.13;5055586;28;20045;-68
2021/10/28 10:02:43;;;;;;;9.93;6.13;;;;;;;17.06;49.35;101385.72;5050419;28;20041;-68
2021/10/28 10:05:27;;;;;;;9.40;5.68;;;;;;;17.15;49.25;101378.59;5060230;28;20136;-68
2021/10/28 10:07:55;;;;;;;10.65;6.05;;;;;;;17.22;49.46;101384.41;5068974;28;20122;-68
2021/10/28 10:10:29;;;;;;;8.00;5.63;;;;;;;17.31;49.29;101384.50;5062705;28;20520;-68
2021/10/28 10:12:57;;;;;;;8.63;5.82;;;;;;;17.36;49.12;101382.22;5069318;28;20048;-68
2021/10/28 10:15:25;;;;;;;7.30;5.32;;;;;;;17.43;49.45;101379.81;5047273;28;20047;-68
2021/10/28 10:17:59;;;;;;;9.63;5.97;;;;;;;17.54;48.98;101381.63;5044167;28;20048;-69
2021/10/28 10:20:33;;;;;;;8.52;5.57;;;;;;;17.59;49.31;101374.72;5062641;28;20045;-69
2021/10/28 10:23:59;;;;;;;8.02;5.38;;;;;;;17.71;49.10;101370.91;5032399;28;20109;-69
2021/10/28 10:26:50;;;;;;;8.30;4.97;;;;;;;17.79;49.49;101364.72;5003129;28;20041;-69
2021/10/28 11:06:20;;;;;;;6.28;3.97;;;;;;;19.38;47.65;101304.94;5023109;28;20049;-68
2021/10/28 11:21:39;;;;;;;5.43;3.33;;;;;;;19.88;46.88;101272.47;5064197;28;20441;-69
2021/10/28 11:25:39;;;;;;;5.97;3.45;;;;;;;20.00;46.02;101273.16;5074825;28;20075;-69
2021/10/28 12:01:34;;;;;;;5.75;3.42;;;;;;;20.28;45.74;101261.06;5073738;28;20048;-69
2021/10/28 12:15:46;;;;;;;5.75;3.35;;;;;;;20.95;44.14;101192.56;5060842;28;20052;-67
2021/10/28 12:46:26;;;;;;;5.75;3.42;;;;;;;21.25;42.83;101165.34;5022050;28;20056;-67
2021/10/28 12:54:10;;;;;;;4.97;3.55;;;;;;;21.32;42.91;101161.97;5065161;28;20040;-67
2021/10/28 13:49:49;;;;;;;4.40;2.90;;;;;;;20.93;41.03;101086.97;5058595;28;20518;-68
2021/10/28 13:55:40;;;;;;;5.38;3.05;;;;;;;20.85;41.07;101093.31;5049321;28;20124;-68
2021/10/28 13:58:20;;;;;;;5.55;3.33;;;;;;;20.81;41.41;101084.50;5063702;28;20060;-68
2021/10/28 14:29:21;;;;;;;6.07;3.95;;;;;;;20.52;41.32;101064.63;5050377;28;20045;-68
2021/10/28 14:34:13;;;;;;;7.63;3.95;;;;;;;20.50;41.32;101051.03;5048679;28;20075;-68
2021/10/28 14:39:12;;;;;;;;;;;;;;;20.21;41.99;101047.66;5058441;28;20051;-68
2021/10/28 15:28:45;;;;;;;7.18;4.70;;;;;;;20.10;41.85;101036.88;5059734;28;20045;-68
2021/10/28 15:42:19;;;;;;;5.88;4.43;;;;;;;19.98;42.11;101024.38;5068616;28;20052;-68
2021/10/28 15:59:01;;;;;;;6.82;5.15;;;;;;;19.75;42.08;101016.59;5057612;28;20106;-68
2021/10/28 16:01:34;;;;;;;7.05;4.80;;;;;;;19.74;42.27;101016.75;5053410;28;20072;-68
2021/10/28 16:23:16;;;;;;;9.07;6.65;;;;;;;19.41;42.10;101037.56;5061677;28;20041;-68
2021/10/28 16:25:45;;;;;;;11.85;7.55;;;;;;;19.36;42.46;101032.50;5062581;28;20057;-67
2021/10/28 16:28:15;;;;;;;8.93;6.25;;;;;;;19.34;42.27;101037.31;5068210;28;20337;-67
2021/10/28 16:30:45;;;;;;;11.25;7.18;;;;;;;19.31;42.41;101021.09;5023679;28;20529;-67
2021/10/28 16:33:13;;;;;;;11.02;7.20;;;;;;;19.28;42.63;101026.03;5070375;28;20044;-68
2021/10/28 16:35:41;;;;;;;9.93;7.15;;;;;;;19.25;42.55;101031.88;5059938;28;20056;-67
2021/10/28 16:38:09;;;;;;;11.13;7.22;;;;;;;19.21;42.54;101031.28;5061634;28;20158;-67
2021/10/28 16:40:37;;;;;;;10.50;6.88;;;;;;;19.17;42.21;101032.63;5058404;28;20044;-68
2021/10/28 16:43:04;;;;;;;11.15;7.50;;;;;;;19.14;42.48;101023.81;5054615;28;20098;-68
2021/10/28 16:45:31;;;;;;;10.00;7.22;;;;;;;19.11;42.48;101029.59;5058748;28;20052;-68
2021/10/28 16:47:58;;;;;;;10.63;7.53;;;;;;;19.08;42.44;101027.19;5054671;28;20127;-68
2021/10/28 16:50:25;;;;;;;10.23;7.18;;;;;;;19.04;42.76;101031.25;5058302;28;20044;-68
2021/10/28 16:52:53;;;;;;;11.20;7.20;;;;;;;19.00;42.42;101025.19;5064963;28;20491;-68
2021/10/28 16:55:20;;;;;;;11.35;7.35;;;;;;;18.96;42.58;101032.88;5069367;28;20045;-68
2021/10/28 16:57:47;;;;;;;10.75;7.50;;;;;;;18.92;42.79;101034.22;5073108;28;20082;-68
2021/10/28 17:00:16;;;;;;;11.02;7.32;;;;;;;18.90;42.90;101040.88;5070238;28;20110;-68
2021/10/28 17:02:43;;;;;;;12.23;7.85;;;;;;;18.87;42.46;101041.16;5059663;28;20045;-68
2021/10/28 17:05:16;;;;;;;10.23;6.47;;;;;;;18.86;43.06;101036.72;5062974;28;20044;-68
2021/10/28 17:07:50;;;;;;;11.50;7.65;;;;;;;18.84;43.07;101033.25;5072577;28;20056;-68
2021/10/28 17:10:32;;;;;;;11.05;7.40;;;;;;;18.79;43.07;101030.91;5067238;28;20045;-68
2021/10/28 17:12:59;;;;;;;12.82;8.25;;;;;;;18.73;43.01;101023.28;5072946;28;20063;-68
2021/10/28 17:15:26;;;;;;;12.10;7.95;;;;;;;18.72;42.93;101028.94;5071931;28;20122;-68
2021/10/28 17:17:53;;;;;;;11.63;8.43;;;;;;;18.69;42.72;101032.88;5072297;28;20057;-68
2021/10/28 17:20:20;;;;;;;12.68;7.93;;;;;;;18.64;42.83;101015.94;5071864;28;20049;-68
2021/10/28 17:22:49;;;;;;;11.65;7.97;;;;;;;18.60;42.59;101022.78;5054152;28;20045;-68
2021/10/28 17:25:20;;;;;;;12.75;7.93;;;;;;;18.57;42.96;101028.56;5071547;28;20083;-68
2021/10/28 17:27:48;;;;;;;11.27;8.13;;;;;;;18.54;43.05;101023.31;5072072;28;20056;-68
2021/10/28 17:30:16;;;;;;;10.82;7.35;;;;;;;18.49;43.01;101032.03;5054206;28;20053;-67
2021/10/28 17:32:44;;;;;;;12.65;8.68;;;;;;;18.45;43.07;101030.56;5044521;28;20045;-68
2021/10/28 17:35:12;;;;;;;12.68;8.57;;;;;;;18.42;43.18;101033.63;5050900;28;20095;-68
2021/10/28 17:37:38;;;;;;;12.90;8.65;;;;;;;18.37;43.30;101032.31;5067795;28;20049;-68
2021/10/28 17:40:06;;;;;;;11.38;8.27;;;;;;;18.34;43.46;101039.00;5070845;28;20048;-68
2021/10/28 17:42:34;;;;;;;12.75;8.32;;;;;;;18.29;43.17;101044.06;5072462;28;20549;-68
2021/10/28 17:45:02;;;;;;;11.48;8.45;;;;;;;18.25;43.06;101042.63;5070227;28;20056;-68
2021/10/28 17:47:29;;;;;;;12.13;8.73;;;;;;;18.23;43.09;101040.03;5070261;28;20088;-68
2021/10/28 17:49:56;;;;;;;13.60;8.93;;;;;;;18.20;43.24;101042.22;5053780;28;20052;-68
2021/10/28 17:52:35;;;;;;;12.80;8.32;;;;;;;18.15;43.46;101041.78;5061140;28;20438;-68
2021/10/28 17:55:03;;;;;;;13.50;9.07;;;;;;;18.12;43.46;101047.56;5060781;28;20052;-68
2021/10/28 17:57:30;;;;;;;13.50;9.50;;;;;;;18.08;43.02;101033.25;5056112;28;20076;-68
2021/10/28 17:59:57;;;;;;;13.00;8.48;;;;;;;18.04;43.39;101030.94;5054944;28;20050;-68
2021/10/28 18:02:24;;;;;;;13.90;9.13;;;;;;;18.01;43.13;101029.38;5063297;28;20068;-68
2021/10/28 18:04:51;;;;;;;13.95;8.98;;;;;;;17.99;43.32;101038.75;5045309;28;20076;-68
2021/10/28 18:07:19;;;;;;;14.30;8.70;;;;;;;17.95;43.31;101038.19;5041224;28;20578;-68
2021/10/28 18:09:46;;;;;;;14.05;8.55;;;;;;;17.92;43.39;101037.63;5064538;28;20053;-68
2021/10/28 18:12:13;;;;;;;12.65;9.10;;;;;;;17.88;43.67;101037.03;5063177;28;20048;-68
2021/10/28 18:14:40;;;;;;;16.30;9.75;;;;;;;17.84;43.68;101030.97;5065403;28;20078;-68
2021/10/28 18:17:08;;;;;;;14.50;9.82;;;;;;;17.82;43.86;101037.63;5059553;28;20044;-68
2021/10/28 18:19:35;;;;;;;14.07;9.43;;;;;;;17.78;43.49;101037.06;5064633;28;20496;-68
2021/10/28 18:22:02;;;;;;;14.80;9.65;;;;;;;17.75;43.55;101040.06;5060116;28;20084;-68
2021/10/28 18:24:30;;;;;;;13.57;9.38;;;;;;;17.73;43.64;101043.97;5056900;28;20129;-68
2021/10/28 18:26:57;;;;;;;14.27;9.48;;;;;;;17.69;43.96;101037.03;5044708;28;20377;-68
2021/10/28 18:29:24;;;;;;;14.07;9.48;;;;;;;17.66;43.51;101037.31;5043921;28;20049;-68
2021/10/28 18:31:51;;;;;;;15.40;9.13;;;;;;;17.61;43.75;101037.72;5069058;28;20063;-68
2021/10/28 18:34:18;;;;;;;14.82;9.80;;;;;;;17.60;44.02;101032.38;5065294;28;20118;-68
2021/10/28 18:36:45;;;;;;;15.88;10.15;;;;;;;17.57;43.63;101028.03;5075926;28;20056;-69
2021/10/28 18:39:14;;;;;;;13.70;9.15;;;;;;;17.57;43.93;101021.66;5059125;28;20492;-69
2021/10/28 18:41:42;;;;;;;13.25;9.25;;;;;;;17.53;43.73;101025.72;5057621;28;20115;-68
2021/10/28 18:44:10;;;;;;;15.77;9.73;;;;;;;17.50;44.05;101022.25;5053362;28;20479;-68
2021/10/28 18:46:37;;;;;;;17.27;10.15;;;;;;;17.48;43.73;101026.13;5054994;28;20053;-68
2021/10/28 18:49:04;;;;;;;14.32;9.98;;;;;;;17.44;43.94;101021.97;5059389;28;20626;-68
2021/10/28 18:51:32;;;;;;;16.67;10.13;;;;;;;17.43;44.11;101031.19;5047308;28;20322;-68
2021/10/28 18:54:00;;;;;;;14.10;9.70;;;;;;;17.40;43.87;101013.13;5061815;28;20048;-68
2021/10/28 18:56:27;;;;;;;13.35;9.25;;;;;;;17.37;44.19;101018.06;5057176;28;20057;-68
2021/10/28 18:59:09;;;;;;;17.63;10.70;;;;;;;17.34;44.21;101010.97;5048540;28;20058;-68
2021/10/28 19:01:37;;;;;;;14.10;9.75;;;;;;;17.32;44.25;101007.47;5043770;28;20095;-68
2021/10/28 19:04:04;;;;;;;14.45;9.20;;;;;;;17.31;44.58;101002.13;5062883;28;20045;-68
2021/10/28 19:06:33;;;;;;;13.93;9.30;;;;;;;17.32;44.49;101002.00;5061174;28;20861;-68
2021/10/28 19:09:00;;;;;;;14.40;9.63;;;;;;;17.30;44.11;101003.13;5056885;28;20055;-68
2021/10/28 19:11:27;;;;;;;14.60;9.80;;;;;;;17.30;44.22;100993.03;5064208;28;20113;-68
2021/10/28 19:13:55;;;;;;;17.58;10.98;;;;;;;17.30;44.10;100992.16;5065288;28;20053;-68
2021/10/28 19:16:23;;;;;;;14.05;9.68;;;;;;;17.29;44.39;100984.97;5064410;28;20083;-69
2021/10/28 19:18:50;;;;;;;15.48;10.23;;;;;;;17.27;44.33;100984.22;5067114;28;20047;-68
2021/10/28 19:21:16;;;;;;;13.88;8.85;;;;;;;17.26;44.04;100982.50;5060394;28;20061;-68
2021/10/28 19:23:43;;;;;;;14.98;10.27;;;;;;;17.24;44.69;100987.25;5059972;28;20060;-68
2021/10/28 19:26:10;;;;;;;14.68;9.65;;;;;;;17.23;44.03;100983.63;5057162;28;20049;-68
2021/10/28 19:28:38;;;;;;;14.05;9.43;;;;;;;17.21;44.42;100988.41;5058538;28;20145;-68
2021/10/28 19:31:08;;;;;;;17.38;10.60;;;;;;;17.19;43.94;100987.69;5060789;28;20062;-68
2021/10/28 19:36:10;;;;;;;16.75;10.20;;;;;;;17.13;44.08;100983.63;5064121;28;20052;-68
2021/10/28 19:40:09;;;;;;;15.50;9.32;;;;;;;17.07;44.22;100986.94;4992562;28;20090;-68
2021/10/28 19:45:27;;;;;;;18.13;10.65;;;;;;;17.07;44.28;100966.84;4965401;28;20074;-67
2021/10/28 19:47:55;;;;;;;15.77;9.43;;;;;;;17.05;44.30;100964.25;4966309;28;20054;-67
2021/10/28 19:50:22;;;;;;;15.63;10.25;;;;;;;17.02;44.17;100963.69;4965445;28;20470;-67
2021/10/28 19:52:52;;;;;;;16.45;10.48;;;;;;;17.04;44.57;100975.41;4968415;28;20055;-68
2021/10/28 19:55:20;;;;;;;15.80;9.65;;;;;;;17.00;44.28;100976.66;4965650;28;20066;-67
2021/10/28 19:57:53;;;;;;;15.80;10.85;;;;;;;16.98;44.55;100974.06;4945037;28;20066;-67
2021/10/28 20:00:36;;;;;;;15.40;9.27;;;;;;;16.95;44.25;100976.22;4967264;28;20466;-67
2021/10/28 20:15:16;;;;;;;14.43;9.45;;;;;;;16.89;44.51;100965.81;4968075;28;20043;-67